Time;durP1;ratioP1;P1;durP2;ratioP2;P2;SDS_P1;SDS_P2;PMS_P1;PMS_P2;Temp;Humidity;BMP_temperature;BMP_pressure;BME280_temperature;BME280_humidity;BME280_pressure;Samples;Min_cycle;Max_cycle;Signal;HPM_P1;HPM_P2
2022/10/19 00:00:45;;;;;;;7.40;1.77;;;12.30;99.90;;;;;;5049581;28;20136;-63
2022/10/19 00:03:10;;;;;;;7.18;2.00;;;12.30;99.90;;;;;;5050485;28;20119;-63
2022/10/19 00:05:36;;;;;;;8.18;2.05;;;12.30;99.90;;;;;;5052104;28;20389;-64
2022/10/19 00:08:01;;;;;;;7.82;1.65;;;12.20;99.90;;;;;;5053231;28;20483;-63
2022/10/19 00:10:27;;;;;;;6.93;2.08;;;12.20;99.90;;;;;;5053352;28;20112;-63
2022/10/19 00:12:53;;;;;;;7.50;1.65;;;12.10;99.90;;;;;;5053306;28;20032;-63
2022/10/19 00:15:19;;;;;;;6.65;1.75;;;12.00;99.90;;;;;;5051443;28;20057;-63
2022/10/19 00:17:44;;;;;;;4.32;1.70;;;11.90;99.90;;;;;;5053247;28;20081;-63
2022/10/19 00:20:11;;;;;;;8.43;1.98;;;11.90;99.90;;;;;;5053726;28;20176;-63
2022/10/19 00:22:37;;;;;;;7.32;1.75;;;11.80;99.90;;;;;;5053114;28;20522;-64
2022/10/19 00:25:03;;;;;;;6.32;1.77;;;11.70;99.90;;;;;;5053140;28;20112;-63
2022/10/19 00:27:28;;;;;;;7.20;1.92;;;11.70;99.90;;;;;;5052713;28;20437;-63
2022/10/19 00:29:54;;;;;;;6.63;2.00;;;11.50;99.90;;;;;;5053071;28;20045;-63
2022/10/19 00:32:19;;;;;;;4.57;1.65;;;11.50;99.90;;;;;;5052996;28;20055;-63
2022/10/19 00:34:45;;;;;;;8.65;1.67;;;11.40;99.90;;;;;;5052659;28;20102;-62
2022/10/19 00:37:11;;;;;;;4.95;1.63;;;11.40;99.90;;;;;;5051889;28;20498;-63
2022/10/19 00:39:37;;;;;;;7.53;1.80;;;11.30;99.90;;;;;;5053115;28;20037;-63
2022/10/19 00:42:03;;;;;;;6.18;2.00;;;11.30;99.90;;;;;;5051409;28;20071;-63
2022/10/19 00:44:28;;;;;;;4.70;1.88;;;11.20;99.90;;;;;;5052242;28;20370;-63
2022/10/19 00:46:58;;;;;;;3.55;1.67;;;11.20;99.90;;;;;;5052471;28;20071;-62
2022/10/19 00:49:28;;;;;;;6.32;2.00;;;11.20;99.90;;;;;;5053078;28;20037;-62
2022/10/19 00:51:57;;;;;;;8.95;1.60;;;11.10;99.90;;;;;;5052591;28;20056;-62
2022/10/19 00:54:24;;;;;;;7.43;1.95;;;11.00;99.90;;;;;;5052331;28;20045;-63
2022/10/19 00:56:53;;;;;;;5.43;1.92;;;11.00;99.90;;;;;;5052025;28;20352;-63
2022/10/19 00:59:22;;;;;;;8.73;2.25;;;10.90;99.90;;;;;;5052296;28;20630;-63
2022/10/19 01:01:48;;;;;;;7.82;2.10;;;10.90;99.90;;;;;;5052525;28;20048;-63
2022/10/19 01:04:14;;;;;;;4.70;1.40;;;10.80;99.90;;;;;;5052285;28;20029;-62
2022/10/19 01:06:41;;;;;;;4.90;1.70;;;10.80;99.90;;;;;;5051852;28;20107;-63
2022/10/19 01:09:07;;;;;;;5.95;2.08;;;10.80;99.90;;;;;;5052233;28;20065;-65
2022/10/19 01:11:41;;;;;;;6.65;1.90;;;10.80;99.90;;;;;;5052279;28;20037;-62
2022/10/19 01:14:19;;;;;;;5.78;1.75;;;10.80;99.90;;;;;;5051862;28;20129;-62
2022/10/19 01:16:44;;;;;;;7.32;2.08;;;10.70;99.90;;;;;;5050865;28;20562;-62
2022/10/19 01:19:41;;;;;;;6.85;2.60;;;10.80;99.90;;;;;;5051987;28;20060;-62
2022/10/19 01:22:36;;;;;;;5.78;2.03;;;10.80;99.90;;;;;;5052288;28;20033;-63
2022/10/19 01:25:27;;;;;;;4.38;1.90;;;10.70;99.90;;;;;;5051857;28;20033;-62
2022/10/19 01:28:10;;;;;;;4.72;2.00;;;10.70;99.90;;;;;;5051881;28;20049;-63
2022/10/19 01:30:45;;;;;;;7.03;2.10;;;10.70;99.90;;;;;;5051847;28;20052;-62
2022/10/19 01:33:19;;;;;;;7.68;2.40;;;10.70;99.90;;;;;;5052061;28;20067;-62
2022/10/19 01:36:08;;;;;;;6.43;2.08;;;10.70;99.90;;;;;;5050827;28;20078;-62
2022/10/19 01:38:50;;;;;;;7.20;2.33;;;10.80;99.90;;;;;;5048014;28;20148;-63
2022/10/19 01:41:24;;;;;;;7.20;2.60;;;10.80;99.90;;;;;;5051447;28;20130;-63
2022/10/19 01:44:02;;;;;;;7.30;2.58;;;10.80;99.90;;;;;;5051702;28;20032;-63
2022/10/19 01:46:38;;;;;;;5.70;2.33;;;10.80;99.90;;;;;;5051224;28;20128;-63
2022/10/19 01:49:12;;;;;;;8.25;3.00;;;10.80;99.90;;;;;;5051366;28;20106;-63
2022/10/19 01:51:42;;;;;;;6.72;2.70;;;10.80;99.90;;;;;;5051897;28;20056;-62
2022/10/19 01:54:11;;;;;;;5.45;2.70;;;10.70;99.90;;;;;;5051728;28;20048;-63
2022/10/19 01:56:41;;;;;;;9.23;3.50;;;10.70;99.90;;;;;;5051280;28;20075;-62
2022/10/19 01:59:09;;;;;;;7.30;3.05;;;10.70;99.90;;;;;;5051672;28;20086;-62
2022/10/19 02:01:38;;;;;;;8.32;2.65;;;10.70;99.90;;;;;;5051678;28;20098;-62
2022/10/19 02:04:04;;;;;;;8.32;2.65;;;10.70;99.90;;;;;;5051310;28;20056;-63
2022/10/19 02:06:30;;;;;;;5.57;2.50;;;10.60;99.90;;;;;;5050906;28;20037;-63
2022/10/19 02:08:55;;;;;;;7.22;2.50;;;10.60;99.90;;;;;;5051156;28;20106;-63
2022/10/19 02:11:22;;;;;;;6.47;2.80;;;10.60;99.90;;;;;;5050889;28;20340;-63
2022/10/19 02:13:55;;;;;;;8.43;2.78;;;10.50;99.90;;;;;;5051100;28;20064;-64
2022/10/19 02:16:33;;;;;;;5.45;2.58;;;10.60;99.90;;;;;;5050924;28;20041;-63
2022/10/19 02:19:00;;;;;;;6.45;2.75;;;10.60;99.90;;;;;;5051444;28;20133;-63
2022/10/19 02:21:27;;;;;;;6.15;2.72;;;10.50;99.90;;;;;;5051111;28;20052;-62
2022/10/19 02:23:52;;;;;;;8.18;3.25;;;10.50;99.90;;;;;;5050947;28;20331;-63
2022/10/19 02:26:19;;;;;;;6.97;2.90;;;10.50;99.90;;;;;;5048390;28;20032;-63
2022/10/19 02:28:45;;;;;;;9.63;3.75;;;10.50;99.90;;;;;;5050586;28;20049;-65
2022/10/19 02:31:12;;;;;;;6.38;2.97;;;10.50;99.90;;;;;;5050532;28;20110;-62
2022/10/19 02:33:37;;;;;;;9.25;2.92;;;10.50;99.90;;;;;;5050601;28;20122;-63
2022/10/19 02:36:03;;;;;;;9.13;3.25;;;10.40;99.90;;;;;;5050313;28;20700;-63
2022/10/19 02:38:29;;;;;;;6.03;3.25;;;10.40;99.90;;;;;;5050695;28;20516;-64
2022/10/19 02:41:04;;;;;;;9.68;3.03;;;10.40;99.90;;;;;;5050518;28;20385;-63
2022/10/19 02:43:32;;;;;;;9.75;3.05;;;10.40;99.90;;;;;;5050896;28;20067;-63
2022/10/19 02:46:47;;;;;;;10.02;3.20;;;10.40;99.90;;;;;;5049977;28;20473;-64
2022/10/19 02:49:13;;;;;;;7.90;3.17;;;10.40;99.90;;;;;;5019311;28;20395;-63
2022/10/19 02:51:54;;;;;;;8.80;3.10;;;10.40;99.90;;;;;;5050771;28;20052;-62
2022/10/19 02:54:21;;;;;;;6.40;2.78;;;10.50;99.90;;;;;;5050313;28;20040;-63
2022/10/19 02:56:47;;;;;;;8.38;3.08;;;10.40;99.90;;;;;;5050293;28;20037;-63
2022/10/19 02:59:12;;;;;;;8.65;2.92;;;10.50;99.90;;;;;;5050581;28;20362;-62
2022/10/19 03:01:38;;;;;;;11.07;2.95;;;10.40;99.90;;;;;;5050574;28;20065;-62
2022/10/19 03:04:04;;;;;;;5.97;2.75;;;10.50;99.90;;;;;;5050036;28;20138;-62
2022/10/19 03:06:29;;;;;;;6.72;2.88;;;10.50;99.90;;;;;;5049722;28;20032;-63
2022/10/19 03:08:55;;;;;;;7.22;3.00;;;10.50;99.90;;;;;;5050201;28;20053;-63
2022/10/19 03:11:20;;;;;;;9.90;3.40;;;10.40;99.90;;;;;;5050400;28;20044;-62
2022/10/19 03:13:46;;;;;;;9.07;2.95;;;10.40;99.90;;;;;;5050332;28;20469;-64
2022/10/19 03:16:12;;;;;;;8.43;3.20;;;10.40;99.90;;;;;;5049805;28;20041;-63
2022/10/19 03:18:38;;;;;;;7.03;2.95;;;10.40;99.90;;;;;;5050513;28;20041;-63
2022/10/19 03:21:09;;;;;;;7.75;3.03;;;10.40;99.90;;;;;;5050195;28;20426;-62
2022/10/19 03:23:36;;;;;;;7.18;2.70;;;10.50;99.90;;;;;;5048691;28;20132;-63
2022/10/19 03:26:02;;;;;;;9.18;3.10;;;10.40;99.90;;;;;;5049489;28;20087;-63
2022/10/19 03:28:28;;;;;;;9.90;3.35;;;10.50;99.90;;;;;;5049904;28;20423;-62
2022/10/19 03:30:54;;;;;;;10.05;3.10;;;10.50;99.90;;;;;;5049877;28;20052;-63
2022/10/19 03:33:20;;;;;;;7.07;2.92;;;10.50;99.90;;;;;;5049991;28;20091;-63
2022/10/19 03:35:46;;;;;;;9.65;2.92;;;10.50;99.90;;;;;;5048014;28;20045;-63
2022/10/19 03:38:11;;;;;;;10.57;3.05;;;10.50;99.90;;;;;;5048962;28;20089;-64
2022/10/19 03:40:37;;;;;;;8.45;2.83;;;10.60;99.90;;;;;;5049604;28;20068;-63
2022/10/19 03:43:03;;;;;;;10.57;3.58;;;10.60;99.90;;;;;;5049759;28;20045;-63
2022/10/19 03:45:28;;;;;;;8.35;3.10;;;10.60;99.90;;;;;;5049463;28;20037;-63
2022/10/19 03:47:54;;;;;;;12.35;3.13;;;10.60;99.90;;;;;;5049616;28;20133;-63
2022/10/19 03:50:20;;;;;;;11.75;3.40;;;10.60;99.90;;;;;;5049839;28;20068;-63
2022/10/19 03:52:48;;;;;;;6.28;2.92;;;10.60;99.90;;;;;;5049757;28;20079;-62
2022/10/19 03:55:14;;;;;;;8.30;3.42;;;10.60;99.90;;;;;;5049340;28;20045;-63
2022/10/19 03:57:40;;;;;;;8.07;2.70;;;10.60;99.90;;;;;;5049387;28;20403;-63
2022/10/19 04:00:06;;;;;;;11.20;2.65;;;10.60;99.90;;;;;;5049816;28;20037;-63
2022/10/19 04:02:32;;;;;;;6.15;3.05;;;10.60;99.90;;;;;;5049366;28;20033;-63
2022/10/19 04:04:57;;;;;;;8.10;2.95;;;10.60;99.90;;;;;;5049489;28;20171;-62
2022/10/19 04:07:23;;;;;;;9.10;2.60;;;10.60;99.90;;;;;;5048875;28;20166;-62
2022/10/19 04:09:48;;;;;;;7.07;2.55;;;10.60;99.90;;;;;;5048988;28;20040;-63
2022/10/19 04:12:14;;;;;;;9.10;2.63;;;10.60;99.90;;;;;;5048958;28;20478;-63
2022/10/19 04:14:40;;;;;;;7.07;2.75;;;10.60;99.90;;;;;;5049353;28;20421;-64
2022/10/19 04:17:05;;;;;;;9.20;2.55;;;10.60;99.90;;;;;;5049296;28;20697;-63
2022/10/19 04:19:31;;;;;;;7.85;2.90;;;10.70;99.90;;;;;;5049448;28;20474;-63
2022/10/19 04:21:57;;;;;;;7.22;2.30;;;10.70;99.90;;;;;;5049593;28;20078;-63
2022/10/19 04:24:22;;;;;;;7.78;2.35;;;10.70;99.90;;;;;;5049224;28;20082;-62
2022/10/19 04:26:51;;;;;;;6.38;2.08;;;10.60;99.90;;;;;;5049376;28;20128;-63
2022/10/19 04:29:18;;;;;;;5.88;2.33;;;10.60;99.90;;;;;;5049531;28;20093;-63
2022/10/19 04:31:44;;;;;;;6.40;2.10;;;10.60;99.90;;;;;;5049665;28;20069;-63
2022/10/19 04:34:10;;;;;;;8.25;2.10;;;10.60;99.90;;;;;;5049431;28;20051;-62
2022/10/19 04:36:37;;;;;;;6.10;2.38;;;10.50;99.90;;;;;;5048730;28;20043;-63
2022/10/19 04:39:04;;;;;;;5.40;1.98;;;10.50;99.90;;;;;;5048223;28;20037;-63
2022/10/19 04:41:30;;;;;;;6.88;1.95;;;10.50;99.90;;;;;;5047474;28;20057;-65
2022/10/19 04:43:57;;;;;;;6.75;2.30;;;10.40;99.90;;;;;;5047976;28;20057;-64
2022/10/19 04:46:24;;;;;;;8.10;2.20;;;10.40;99.90;;;;;;5047217;28;20492;-63
2022/10/19 04:48:50;;;;;;;8.38;2.47;;;10.40;99.90;;;;;;5047159;28;20052;-64
2022/10/19 04:51:17;;;;;;;11.32;2.28;;;10.30;99.90;;;;;;5052028;28;20079;-65
2022/10/19 04:53:43;;;;;;;6.85;2.30;;;10.40;99.90;;;;;;5051864;28;20079;-63
2022/10/19 04:56:20;;;;;;;8.07;2.60;;;10.40;99.90;;;;;;5050967;28;20045;-63
2022/10/19 04:58:47;;;;;;;6.07;2.10;;;10.30;99.90;;;;;;5051944;28;20041;-63
2022/10/19 05:01:18;;;;;;;7.50;2.20;;;10.30;99.90;;;;;;5050744;28;20033;-64
2022/10/19 05:03:44;;;;;;;6.75;2.20;;;10.30;99.90;;;;;;5051883;28;20048;-63
2022/10/19 05:06:11;;;;;;;8.90;2.30;;;10.30;99.90;;;;;;5050497;28;20044;-63
2022/10/19 05:08:37;;;;;;;6.03;2.25;;;10.30;99.90;;;;;;5048994;28;20051;-65
2022/10/19 05:11:12;;;;;;;6.95;2.03;;;10.30;99.90;;;;;;5051483;28;20119;-64
2022/10/19 05:13:38;;;;;;;7.20;2.45;;;10.30;99.90;;;;;;5052548;28;20424;-64
2022/10/19 05:16:06;;;;;;;8.82;2.60;;;10.20;99.90;;;;;;5050856;28;20083;-64
2022/10/19 05:18:32;;;;;;;7.78;2.45;;;10.30;99.90;;;;;;5051334;28;20052;-65
2022/10/19 05:21:06;;;;;;;7.72;2.40;;;10.30;99.90;;;;;;5051782;28;20029;-65
2022/10/19 05:23:32;;;;;;;6.18;1.95;;;10.30;99.90;;;;;;5051676;28;20045;-65
2022/10/19 05:26:08;;;;;;;7.57;2.78;;;10.30;99.90;;;;;;5050818;28;20033;-66
2022/10/19 05:28:34;;;;;;;6.88;2.40;;;10.30;99.90;;;;;;5051471;28;20115;-65
2022/10/19 05:31:12;;;;;;;6.30;2.42;;;10.30;99.90;;;;;;5050530;28;20521;-66
2022/10/19 05:33:38;;;;;;;7.45;2.03;;;10.30;99.90;;;;;;5050867;28;20094;-66
2022/10/19 05:36:17;;;;;;;6.70;2.22;;;10.40;99.90;;;;;;5051446;28;20052;-66
2022/10/19 05:38:44;;;;;;;7.25;1.95;;;10.30;99.90;;;;;;5049472;28;20047;-64
2022/10/19 05:41:11;;;;;;;5.95;2.20;;;10.40;99.90;;;;;;5051621;28;20447;-64
2022/10/19 05:43:36;;;;;;;8.25;2.50;;;10.40;99.90;;;;;;5050455;28;20045;-65
2022/10/19 05:46:07;;;;;;;5.50;2.00;;;10.40;99.90;;;;;;5051379;28;20082;-64
2022/10/19 05:48:33;;;;;;;7.90;2.28;;;10.40;99.90;;;;;;5051216;28;20086;-63
2022/10/19 05:51:01;;;;;;;5.25;2.15;;;10.40;99.90;;;;;;5051559;28;20040;-67
2022/10/19 05:53:28;;;;;;;6.38;1.80;;;10.40;99.90;;;;;;5051539;28;20079;-66
2022/10/19 05:55:54;;;;;;;7.80;2.35;;;10.40;99.90;;;;;;5050891;28;20103;-66
2022/10/19 05:58:19;;;;;;;10.85;2.15;;;10.50;99.90;;;;;;5042888;28;20044;-64
2022/10/19 06:00:57;;;;;;;8.73;2.17;;;10.50;99.90;;;;;;5049787;28;20059;-63
2022/10/19 06:03:24;;;;;;;7.47;2.00;;;10.50;99.90;;;;;;5050873;28;20041;-64
2022/10/19 06:05:50;;;;;;;7.72;2.40;;;10.50;99.90;;;;;;5031229;28;20559;-63
2022/10/19 06:08:17;;;;;;;7.30;2.20;;;10.50;99.90;;;;;;5047171;28;20183;-63
2022/10/19 06:10:44;;;;;;;7.78;2.30;;;10.50;99.90;;;;;;5048543;28;20033;-64
2022/10/19 06:13:10;;;;;;;8.95;2.50;;;10.60;99.90;;;;;;5048791;28;20044;-63
2022/10/19 06:15:38;;;;;;;8.25;2.65;;;10.60;99.90;;;;;;5048500;28;20447;-63
2022/10/19 06:18:09;;;;;;;7.97;2.28;;;10.60;99.90;;;;;;5047798;28;20112;-63
2022/10/19 06:20:40;;;;;;;9.13;2.70;;;10.60;99.90;;;;;;5049218;28;20170;-63
2022/10/19 06:23:06;;;;;;;8.90;2.15;;;10.60;99.90;;;;;;5049043;28;20044;-64
2022/10/19 06:25:33;;;;;;;7.47;2.30;;;10.60;99.90;;;;;;5050987;28;20116;-63
2022/10/19 06:28:00;;;;;;;9.65;2.50;;;10.70;99.90;;;;;;5050221;28;20378;-65
2022/10/19 06:30:26;;;;;;;8.93;2.58;;;10.70;99.90;;;;;;5048908;28;20037;-64
2022/10/19 06:32:52;;;;;;;8.10;2.40;;;10.70;99.90;;;;;;5049645;28;20354;-65
2022/10/19 06:35:17;;;;;;;10.02;2.85;;;10.70;99.90;;;;;;5049696;28;20037;-64
2022/10/19 06:37:43;;;;;;;7.38;2.22;;;10.70;99.90;;;;;;5048889;28;20094;-64
2022/10/19 06:40:10;;;;;;;11.07;2.92;;;10.70;99.90;;;;;;5050067;28;20037;-64
2022/10/19 06:42:38;;;;;;;8.05;2.67;;;10.70;99.90;;;;;;5049769;28;20061;-63
2022/10/19 06:45:08;;;;;;;6.50;2.25;;;10.70;99.90;;;;;;5050626;28;20116;-63
2022/10/19 06:47:34;;;;;;;8.70;3.08;;;10.70;99.90;;;;;;5042107;28;20045;-64
2022/10/19 06:50:01;;;;;;;7.18;2.10;;;10.80;99.90;;;;;;5050321;28;20430;-65
2022/10/19 06:52:26;;;;;;;10.23;2.80;;;10.80;99.90;;;;;;5050357;28;20037;-64
2022/10/19 06:54:52;;;;;;;12.43;3.00;;;10.80;99.90;;;;;;5050634;28;20091;-63
2022/10/19 06:57:17;;;;;;;10.60;2.30;;;10.90;99.90;;;;;;5049101;28;20539;-62
2022/10/19 06:59:43;;;;;;;7.13;2.17;;;10.90;99.90;;;;;;5050222;28;20361;-63
2022/10/19 07:02:12;;;;;;;6.60;2.55;;;10.80;99.90;;;;;;5050472;28;20036;-63
2022/10/19 07:04:38;;;;;;;8.82;2.58;;;10.90;99.90;;;;;;5050239;28;20316;-63
2022/10/19 07:07:04;;;;;;;16.13;3.35;;;10.90;99.90;;;;;;5049965;28;20044;-63
2022/10/19 07:09:30;;;;;;;10.25;2.70;;;10.90;99.90;;;;;;5048323;28;20091;-64
2022/10/19 07:11:55;;;;;;;9.68;2.80;;;11.00;99.90;;;;;;5050197;28;20045;-63
2022/10/19 07:14:23;;;;;;;10.30;3.08;;;11.00;99.90;;;;;;5049963;28;20037;-63
2022/10/19 07:16:49;;;;;;;9.07;2.50;;;11.00;99.90;;;;;;5049468;28;20044;-64
2022/10/19 07:19:15;;;;;;;11.60;2.53;;;11.00;99.90;;;;;;5049300;28;20047;-64
2022/10/19 07:21:42;;;;;;;9.32;2.67;;;11.10;99.90;;;;;;5048919;28;20033;-63
2022/10/19 07:24:08;;;;;;;8.20;2.47;;;11.10;99.90;;;;;;5049875;28;20048;-64
2022/10/19 07:26:34;;;;;;;9.88;2.53;;;11.10;99.90;;;;;;5049549;28;20044;-64
2022/10/19 07:28:59;;;;;;;7.57;2.28;;;11.20;99.90;;;;;;5049526;28;20060;-65
2022/10/19 07:31:27;;;;;;;7.72;2.50;;;11.20;99.90;;;;;;5049918;28;20378;-63
2022/10/19 07:33:57;;;;;;;8.50;2.47;;;11.30;99.90;;;;;;5050000;28;20083;-63
2022/10/19 07:36:23;;;;;;;8.07;2.63;;;11.40;99.90;;;;;;5049778;28;20111;-63
2022/10/19 07:38:49;;;;;;;8.30;2.10;;;11.30;99.90;;;;;;5049450;28;20060;-64
2022/10/19 07:41:17;;;;;;;12.00;2.53;;;11.40;99.90;;;;;;5049607;28;20166;-63
2022/10/19 07:43:45;;;;;;;8.65;2.67;;;11.40;99.90;;;;;;5049350;28;20041;-64
2022/10/19 07:46:14;;;;;;;11.57;2.63;;;11.40;99.90;;;;;;5049849;28;20055;-66
2022/10/19 07:48:40;;;;;;;9.88;2.83;;;11.60;99.90;;;;;;5049378;28;20045;-64
2022/10/19 07:51:08;;;;;;;8.05;1.92;;;11.70;99.90;;;;;;5050053;28;20048;-63
2022/10/19 07:53:34;;;;;;;16.33;3.10;;;11.70;99.90;;;;;;5049674;28;20090;-64
2022/10/19 07:56:05;;;;;;;8.77;2.33;;;11.70;99.90;;;;;;5049762;28;20430;-65
2022/10/19 07:58:31;;;;;;;9.32;2.30;;;11.70;99.90;;;;;;5048925;28;20043;-65
2022/10/19 08:01:05;;;;;;;10.85;2.42;;;11.90;99.90;;;;;;5049645;28;20037;-63
2022/10/19 08:03:32;;;;;;;10.98;2.45;;;12.00;99.90;;;;;;5048699;28;20080;-65
2022/10/19 08:06:02;;;;;;;12.60;3.30;;;12.10;99.90;;;;;;5049806;28;20095;-65
2022/10/19 08:08:28;;;;;;;13.98;2.97;;;12.10;99.90;;;;;;5049297;28;20181;-63
2022/10/19 08:10:54;;;;;;;10.05;2.72;;;12.10;99.90;;;;;;5049785;28;20143;-63
2022/10/19 08:13:20;;;;;;;6.55;1.90;;;12.10;99.90;;;;;;5049503;28;20033;-63
2022/10/19 08:15:45;;;;;;;13.80;2.90;;;12.10;99.90;;;;;;5048220;28;20102;-64
2022/10/19 08:18:11;;;;;;;10.18;2.10;;;12.20;99.90;;;;;;5049049;28;20068;-63
2022/10/19 08:20:40;;;;;;;10.13;3.00;;;12.30;99.90;;;;;;5049382;28;20064;-64
2022/10/19 08:23:05;;;;;;;8.38;2.17;;;12.40;99.90;;;;;;5049515;28;20029;-63
2022/10/19 08:25:31;;;;;;;6.90;1.90;;;12.40;99.90;;;;;;5052392;28;20095;-63
2022/10/19 08:27:57;;;;;;;7.93;2.10;;;12.50;99.90;;;;;;5052665;28;20102;-64
2022/10/19 08:30:22;;;;;;;10.90;2.17;;;12.60;99.90;;;;;;5053449;28;20076;-64
2022/10/19 08:32:48;;;;;;;10.65;2.53;;;12.70;99.90;;;;;;5051477;28;20128;-64
2022/10/19 08:35:13;;;;;;;11.88;3.03;;;12.80;99.90;;;;;;5051856;28;20053;-63
2022/10/19 08:37:39;;;;;;;7.45;1.98;;;12.80;99.90;;;;;;5053121;28;20041;-64
2022/10/19 08:40:08;;;;;;;8.18;2.00;;;12.90;99.90;;;;;;5053085;28;20115;-63
2022/10/19 08:42:49;;;;;;;11.35;2.30;;;13.00;99.90;;;;;;5051797;28;20049;-64
2022/10/19 08:45:38;;;;;;;11.27;2.10;;;13.10;99.90;;;;;;5053196;28;20098;-63
2022/10/19 08:48:22;;;;;;;14.45;2.85;;;13.10;99.90;;;;;;5052483;28;20123;-63
2022/10/19 08:50:49;;;;;;;10.07;2.35;;;13.20;99.90;;;;;;5050695;28;20428;-63
2022/10/19 08:53:23;;;;;;;11.02;2.92;;;13.30;99.90;;;;;;5051356;28;20049;-64
2022/10/19 08:55:51;;;;;;;;;;;13.40;99.90;;;;;;5051898;28;20728;-64
2022/10/19 08:59:15;;;;;;;10.98;2.33;;;13.40;99.90;;;;;;5049792;28;20007;-63
2022/10/19 09:01:44;;;;;;;10.82;2.80;;;13.50;99.90;;;;;;5017414;28;20049;-64
2022/10/19 09:04:35;;;;;;;11.43;2.78;;;13.60;99.90;;;;;;5052848;28;20059;-63
2022/10/19 09:07:24;;;;;;;8.95;2.40;;;13.50;99.90;;;;;;5052858;28;20036;-64
2022/10/19 09:09:58;;;;;;;7.93;2.03;;;13.60;99.90;;;;;;5048981;28;20136;-63
2022/10/19 09:12:33;;;;;;;8.38;2.13;;;13.60;99.90;;;;;;5052312;28;20037;-65
2022/10/19 09:15:05;;;;;;;10.07;2.30;;;13.50;99.90;;;;;;5052541;28;20088;-66
2022/10/19 09:17:32;;;;;;;11.43;2.50;;;13.50;99.90;;;;;;5051880;28;20032;-64
2022/10/19 09:20:12;;;;;;;10.35;1.90;;;13.50;99.90;;;;;;5052256;28;20116;-64
2022/10/19 09:22:39;;;;;;;11.52;2.38;;;13.40;99.90;;;;;;5051180;28;20085;-64
2022/10/19 09:25:12;;;;;;;8.63;2.25;;;13.50;99.90;;;;;;5052159;28;20553;-64
2022/10/19 09:27:39;;;;;;;10.37;2.60;;;13.50;99.90;;;;;;5051559;28;20098;-63
2022/10/19 09:30:16;;;;;;;9.65;2.40;;;13.50;99.90;;;;;;5052126;28;20106;-63
2022/10/19 09:32:42;;;;;;;9.05;2.40;;;13.50;99.90;;;;;;5052400;28;20049;-63
2022/10/19 09:35:25;;;;;;;11.68;2.70;;;13.40;99.90;;;;;;5051737;28;20047;-64
2022/10/19 09:37:52;;;;;;;7.77;2.60;;;13.40;99.90;;;;;;5050979;28;20043;-63
2022/10/19 09:40:21;;;;;;;9.75;2.40;;;13.30;99.90;;;;;;5051884;28;20037;-63
2022/10/19 09:42:55;;;;;;;13.90;2.47;;;13.50;99.90;;;;;;5051408;28;20079;-64
2022/10/19 09:45:44;;;;;;;9.00;2.38;;;13.50;99.90;;;;;;5051881;28;20041;-63
2022/10/19 09:48:22;;;;;;;11.00;2.22;;;13.50;99.90;;;;;;5051523;28;20084;-64
2022/10/19 09:50:54;;;;;;;7.82;2.30;;;13.60;99.90;;;;;;5051901;28;20041;-63
2022/10/19 09:53:20;;;;;;;11.88;2.45;;;13.70;99.90;;;;;;5051582;28;20098;-65
2022/10/19 09:56:05;;;;;;;10.60;2.58;;;13.70;99.90;;;;;;5051759;28;20040;-63
2022/10/19 09:58:32;;;;;;;9.27;2.08;;;13.70;99.90;;;;;;5051306;28;20055;-64
2022/10/19 10:00:58;;;;;;;9.82;2.08;;;13.70;99.90;;;;;;5051448;28;20033;-63
2022/10/19 10:03:29;;;;;;;10.43;2.42;;;13.70;99.90;;;;;;5051858;28;20033;-63
2022/10/19 10:06:06;;;;;;;8.95;2.33;;;13.70;99.90;;;;;;5051169;28;20448;-63
2022/10/19 10:08:35;;;;;;;13.05;2.67;;;13.70;99.90;;;;;;5050995;28;20449;-64
2022/10/19 10:11:22;;;;;;;8.85;2.75;;;13.70;99.90;;;;;;5051525;28;20132;-64
2022/10/19 10:13:51;;;;;;;8.57;2.13;;;13.70;99.90;;;;;;5050762;28;20049;-63
2022/10/19 10:16:22;;;;;;;13.57;2.25;;;13.70;99.90;;;;;;5051098;28;20358;-63
2022/10/19 10:18:53;;;;;;;9.52;1.95;;;13.80;99.90;;;;;;5048869;28;20048;-65
2022/10/19 10:21:22;;;;;;;10.38;2.10;;;13.90;99.90;;;;;;5051157;28;20124;-64
2022/10/19 10:24:15;;;;;;;8.93;1.88;;;14.10;99.90;;;;;;5049693;28;20056;-65
2022/10/19 10:26:43;;;;;;;12.40;2.45;;;14.10;99.90;;;;;;5048697;28;20066;-65
2022/10/19 10:29:34;;;;;;;8.45;2.20;;;14.20;99.90;;;;;;5050607;28;20036;-64
2022/10/19 10:32:18;;;;;;;7.63;2.35;;;14.20;99.90;;;;;;5051223;28;20047;-65
2022/10/19 10:35:01;;;;;;;8.27;2.45;;;14.20;99.90;;;;;;5050887;28;20040;-64
2022/10/19 10:37:41;;;;;;;10.13;2.30;;;14.30;99.90;;;;;;5050645;28;20080;-64
2022/10/19 10:40:20;;;;;;;12.23;2.45;;;14.10;99.90;;;;;;5050715;28;20045;-63
2022/10/19 10:42:48;;;;;;;9.07;1.98;;;14.00;99.90;;;;;;5048369;28;20053;-64
2022/10/19 10:45:29;;;;;;;8.57;2.38;;;13.90;99.90;;;;;;5049137;28;20032;-63
2022/10/19 10:47:56;;;;;;;9.25;2.15;;;13.70;99.90;;;;;;5048656;28;20175;-64
2022/10/19 10:50:30;;;;;;;10.02;2.95;;;13.70;99.90;;;;;;5050722;28;20044;-64
2022/10/19 10:53:05;;;;;;;10.55;2.25;;;13.70;99.90;;;;;;5050666;28;20073;-65
2022/10/19 10:55:31;;;;;;;8.93;2.10;;;13.70;99.90;;;;;;5050455;28;20073;-63
2022/10/19 10:58:22;;;;;;;8.15;2.00;;;13.80;99.90;;;;;;5049078;28;20041;-64
2022/10/19 11:00:49;;;;;;;9.15;1.92;;;13.80;99.90;;;;;;5050541;28;20059;-64
2022/10/19 11:03:28;;;;;;;8.07;2.00;;;13.80;99.90;;;;;;5049194;28;20389;-63
2022/10/19 11:05:59;;;;;;;8.38;2.25;;;13.80;99.90;;;;;;5050444;28;20041;-64
2022/10/19 11:08:42;;;;;;;9.48;2.35;;;13.80;99.90;;;;;;5049973;28;20049;-63
2022/10/19 11:11:19;;;;;;;10.70;2.17;;;13.80;99.90;;;;;;5050838;28;20110;-65
2022/10/19 11:13:49;;;;;;;10.40;2.92;;;13.80;99.90;;;;;;5048837;28;20102;-63
2022/10/19 11:16:22;;;;;;;10.10;2.53;;;13.90;99.90;;;;;;5050420;28;20124;-63
2022/10/19 11:18:53;;;;;;;7.75;2.20;;;13.90;99.90;;;;;;5049598;28;20112;-64
2022/10/19 11:21:47;;;;;;;7.18;2.08;;;14.00;99.90;;;;;;5050015;28;20420;-64
2022/10/19 11:24:36;;;;;;;9.98;2.30;;;14.20;99.90;;;;;;5050146;28;20037;-64
2022/10/19 11:27:46;;;;;;;9.65;2.17;;;14.10;99.90;;;;;;5038483;28;20037;-65
2022/10/19 11:30:19;;;;;;;10.00;2.40;;;14.10;99.90;;;;;;5029780;28;20174;-64
2022/10/19 11:33:23;;;;;;;7.63;2.10;;;14.10;99.90;;;;;;5050256;28;20056;-63
2022/10/19 11:35:57;;;;;;;8.73;2.38;;;14.10;99.90;;;;;;5048364;28;20048;-64
2022/10/19 11:38:39;;;;;;;8.82;2.60;;;14.00;99.90;;;;;;5047847;28;20052;-63
2022/10/19 11:41:27;;;;;;;11.13;2.30;;;13.90;99.90;;;;;;5048556;28;20611;-63
2022/10/19 11:44:19;;;;;;;11.40;2.30;;;14.00;99.90;;;;;;5048241;28;20079;-63
2022/10/19 11:46:45;;;;;;;8.88;2.30;;;14.00;99.90;;;;;;5049287;28;20132;-65
2022/10/19 11:49:33;;;;;;;8.80;2.08;;;14.00;99.90;;;;;;5048968;28;20127;-62
2022/10/19 11:52:22;;;;;;;8.10;2.00;;;14.10;99.90;;;;;;5049346;28;20773;-64
2022/10/19 11:55:07;;;;;;;11.43;2.53;;;14.10;99.90;;;;;;5044129;28;20037;-63
2022/10/19 11:58:05;;;;;;;9.82;2.58;;;14.10;99.90;;;;;;5048284;28;20076;-63
2022/10/19 12:00:38;;;;;;;6.75;1.85;;;14.10;99.90;;;;;;5039450;28;20368;-64
2022/10/19 12:03:58;;;;;;;10.25;2.05;;;14.10;99.90;;;;;;5050420;28;20198;-64
2022/10/19 12:06:38;;;;;;;9.60;2.33;;;14.10;99.90;;;;;;5045100;28;20501;-63
2022/10/19 12:09:27;;;;;;;8.48;2.33;;;14.10;99.90;;;;;;5052168;28;20147;-65
2022/10/19 12:12:01;;;;;;;12.25;2.35;;;14.10;99.90;;;;;;5043822;28;20083;-63
2022/10/19 12:14:32;;;;;;;10.85;2.60;;;14.10;99.90;;;;;;5053115;28;20037;-63
2022/10/19 12:17:13;;;;;;;9.75;2.50;;;14.20;99.90;;;;;;5041712;28;20124;-63
2022/10/19 12:19:44;;;;;;;10.57;2.20;;;14.10;99.90;;;;;;5052950;28;20095;-63
2022/10/19 12:22:18;;;;;;;6.78;2.17;;;14.10;99.90;;;;;;5052165;28;20037;-62
2022/10/19 12:24:43;;;;;;;11.52;2.80;;;14.10;99.90;;;;;;5052838;28;20065;-64
2022/10/19 12:27:14;;;;;;;7.72;2.35;;;14.10;99.90;;;;;;5052676;28;20129;-64
2022/10/19 12:29:45;;;;;;;12.07;2.38;;;14.00;99.90;;;;;;5052307;28;20134;-63
2022/10/19 12:32:14;;;;;;;11.23;2.50;;;14.00;99.90;;;;;;5052451;28;20033;-64
2022/10/19 12:34:56;;;;;;;9.52;2.47;;;13.90;99.90;;;;;;5053185;28;20045;-63
2022/10/19 12:37:58;;;;;;;10.10;2.92;;;13.90;99.90;;;;;;5052298;28;20049;-63
2022/10/19 12:41:02;;;;;;;10.30;3.33;;;13.90;99.90;;;;;;5034260;28;20374;-64
2022/10/19 12:43:52;;;;;;;9.82;2.90;;;13.80;99.90;;;;;;5053103;28;20045;-64
2022/10/19 12:46:34;;;;;;;7.18;2.42;;;13.80;99.90;;;;;;5052242;28;20048;-63
2022/10/19 12:49:33;;;;;;;13.52;3.45;;;13.80;99.90;;;;;;5051851;28;20037;-63
2022/10/19 12:52:00;;;;;;;8.98;2.88;;;13.80;99.90;;;;;;5051986;28;20473;-67
2022/10/19 12:54:28;;;;;;;13.93;3.15;;;13.80;99.90;;;;;;5051856;28;20084;-63
2022/10/19 12:56:56;;;;;;;11.52;2.58;;;13.80;99.90;;;;;;5052308;28;20130;-63
2022/10/19 12:59:29;;;;;;;12.00;2.78;;;13.90;99.90;;;;;;5052114;28;20048;-63
2022/10/19 13:01:55;;;;;;;10.43;2.72;;;13.80;99.90;;;;;;5052405;28;20136;-63
2022/10/19 13:04:27;;;;;;;10.55;2.60;;;13.80;99.90;;;;;;5052121;28;20029;-63
2022/10/19 13:06:56;;;;;;;9.77;2.42;;;13.80;99.90;;;;;;5050798;28;20099;-63